Time;durP1;ratioP1;P1;durP2;ratioP2;P2;SDS_P1;SDS_P2;PMS_P1;PMS_P2;Temp;Humidity;BMP_temperature;BMP_pressure;BME280_temperature;BME280_humidity;BME280_pressure;Samples;Min_cycle;Max_cycle;Signal;HPM_P1;HPM_P2
2022/10/08 00:01:34;;;;;;;13.43;6.43;;;;;;;15.42;100.00;99999.97;12214281;19;20003;-84
2022/10/08 00:05:36;;;;;;;15.85;6.70;;;;;;;15.41;100.00;99993.59;12192583;19;20362;-84
2022/10/08 00:09:37;;;;;;;14.13;6.50;;;;;;;15.40;100.00;99997.47;12215112;19;20011;-84
2022/10/08 00:13:41;;;;;;;11.52;6.20;;;;;;;15.41;100.00;99992.78;12213172;19;20486;-86
2022/10/08 00:17:44;;;;;;;12.52;6.43;;;;;;;15.41;100.00;100003.88;12188264;19;20860;-86
2022/10/08 00:21:49;;;;;;;19.20;6.90;;;;;;;15.42;100.00;100000.81;12206195;19;20054;-85
2022/10/08 00:25:51;;;;;;;9.18;5.60;;;;;;;15.41;100.00;100012.22;12212520;19;20007;-85
2022/10/08 00:29:53;;;;;;;14.77;6.10;;;;;;;15.32;100.00;100014.69;12193527;19;20499;-85
2022/10/08 00:33:56;;;;;;;14.85;6.65;;;;;;;15.30;100.00;100008.56;12208861;19;20771;-84
2022/10/08 00:37:58;;;;;;;12.15;7.20;;;;;;;15.30;100.00;100007.75;12209356;19;20006;-85
2022/10/08 00:42:01;;;;;;;11.85;6.30;;;;;;;15.27;100.00;100004.41;12191839;19;20338;-86
2022/10/08 00:46:04;;;;;;;10.40;6.35;;;;;;;15.25;100.00;99998.28;12210709;19;20078;-84
2022/10/08 00:50:11;;;;;;;15.90;7.75;;;;;;;15.23;100.00;99996.91;12207034;19;20011;-84
2022/10/08 00:54:13;;;;;;;15.25;7.47;;;;;;;15.17;100.00;100003.56;12188088;19;20601;-86
2022/10/08 00:58:20;;;;;;;14.20;7.20;;;;;;;15.17;100.00;100000.78;12212931;19;20050;-84
2022/10/08 01:02:21;;;;;;;20.52;7.57;;;;;;;15.17;100.00;99993.31;12191740;19;20007;-85
2022/10/08 01:06:27;;;;;;;17.90;7.78;;;;;;;15.17;100.00;99992.44;12207336;19;20039;-85
2022/10/08 01:10:41;;;;;;;14.48;7.82;;;;;;;15.14;100.00;99987.44;12211955;19;20014;-85
2022/10/08 01:14:59;;;;;;;11.52;6.80;;;;;;;15.13;100.00;99985.78;12187254;19;20739;-84
2022/10/08 01:19:06;;;;;;;13.82;6.57;;;;;;;15.13;100.00;99999.66;12212180;19;20387;-85
2022/10/08 01:23:30;;;;;;;17.45;6.47;;;;;;;15.11;100.00;99993.56;12210518;19;20007;-84
2022/10/08 01:27:42;;;;;;;12.60;7.63;;;;;;;15.09;100.00;99999.41;12189916;19;20644;-85
2022/10/08 01:31:49;;;;;;;17.90;7.35;;;;;;;15.08;100.00;100000.50;12215889;19;20010;-85
2022/10/08 01:35:56;;;;;;;13.05;6.50;;;;;;;15.06;100.00;99993.56;12186502;19;20003;-85
2022/10/08 01:40:04;;;;;;;13.10;6.82;;;;;;;15.07;100.00;100006.31;12207166;19;20006;-85
2022/10/08 01:44:14;;;;;;;11.68;6.07;;;;;;;15.04;100.00;100014.09;12208137;19;20010;-84
2022/10/08 01:48:24;;;;;;;10.98;6.65;;;;;;;14.99;100.00;100005.78;12186785;19;20037;-85
2022/10/08 01:52:30;;;;;;;10.75;6.45;;;;;;;14.99;100.00;100004.91;12219078;19;20014;-85
2022/10/08 01:56:35;;;;;;;16.98;7.10;;;;;;;15.00;100.00;99998.28;12199424;19;20014;-85
2022/10/08 02:00:39;;;;;;;11.88;6.72;;;;;;;14.99;100.00;99993.81;12221321;19;20038;-84
2022/10/08 02:04:41;;;;;;;15.63;6.47;;;;;;;14.97;100.00;99994.09;12221232;19;20143;-85
2022/10/08 02:08:42;;;;;;;13.10;7.20;;;;;;;14.95;100.00;100001.03;12196184;19;20007;-87
2022/10/08 02:12:45;;;;;;;15.65;7.13;;;;;;;14.92;100.00;100005.19;12216795;19;20458;-86
2022/10/08 02:16:54;;;;;;;15.77;7.50;;;;;;;14.88;100.00;100004.06;12222551;19;20475;-85
2022/10/08 02:21:07;;;;;;;15.30;7.70;;;;;;;14.86;100.00;100009.06;12198404;19;20010;-85
2022/10/08 02:25:15;;;;;;;13.23;6.95;;;;;;;14.84;100.00;100008.47;12217945;19;20050;-84
2022/10/08 02:29:32;;;;;;;17.33;8.25;;;;;;;14.84;100.00;100018.75;12211231;19;20027;-84
2022/10/08 02:33:43;;;;;;;13.88;6.95;;;;;;;14.81;100.00;100017.34;12212104;19;20007;-86
2022/10/08 02:37:54;;;;;;;13.70;7.60;;;;;;;14.80;100.00;100010.16;12216343;19;20006;-86
2022/10/08 02:42:00;;;;;;;16.75;7.78;;;;;;;14.77;100.00;100000.41;12192913;19;20029;-86
2022/10/08 02:46:19;;;;;;;15.93;8.90;;;;;;;14.71;100.00;99986.81;12218121;19;20018;-85
2022/10/08 02:50:25;;;;;;;15.48;8.30;;;;;;;14.65;100.00;100002.59;12196278;19;20062;-86
2022/10/08 02:54:34;;;;;;;14.23;7.97;;;;;;;14.59;100.00;99998.97;12218426;19;20034;-86
2022/10/08 02:58:36;;;;;;;15.02;8.43;;;;;;;14.57;100.00;100008.66;12215997;19;20007;-85
2022/10/08 03:03:02;;;;;;;14.18;7.45;;;;;;;14.54;100.00;100012.00;12191682;19;20351;-86
2022/10/08 03:07:05;;;;;;;14.75;7.18;;;;;;;14.50;100.00;100011.66;12214766;19;20029;-86
2022/10/08 03:11:07;;;;;;;11.57;6.07;;;;;;;14.50;100.00;100016.38;12217298;19;20087;-86
2022/10/08 03:15:12;;;;;;;12.30;6.37;;;;;;;14.47;100.00;100008.59;12195337;19;20034;-85
2022/10/08 03:19:16;;;;;;;11.75;6.10;;;;;;;14.45;100.00;100019.13;12221708;19;20116;-84
2022/10/08 03:23:18;;;;;;;11.43;6.55;;;;;;;14.44;100.00;100025.78;12200827;19;20039;-84
2022/10/08 03:27:20;;;;;;;11.13;5.63;;;;;;;14.43;100.00;100019.41;12220915;19;20076;-85
2022/10/08 03:31:21;;;;;;;14.98;6.35;;;;;;;14.30;100.00;100012.41;12220961;19;20002;-85
2022/10/08 03:35:23;;;;;;;9.10;5.53;;;;;;;14.08;100.00;100009.81;12197519;19;20006;-85
2022/10/08 03:39:25;;;;;;;11.48;5.88;;;;;;;13.90;100.00;100019.38;12219284;19;20015;-83
2022/10/08 03:43:31;;;;;;;12.60;5.63;;;;;;;13.72;100.00;100022.59;12217482;19;20081;-86
2022/10/08 03:47:33;;;;;;;13.48;6.30;;;;;;;13.54;100.00;100031.31;12202197;19;20824;-85
2022/10/08 03:51:35;;;;;;;9.48;5.10;;;;;;;13.39;100.00;100029.25;12221741;19;20033;-86
2022/10/08 03:55:36;;;;;;;11.93;5.13;;;;;;;13.25;100.00;100027.97;12222782;19;20063;-86
2022/10/08 03:59:38;;;;;;;16.98;6.22;;;;;;;13.12;100.00;100030.06;12202234;19;20017;-86
2022/10/08 04:03:40;;;;;;;12.05;5.75;;;;;;;13.02;100.00;100043.78;12217548;19;20578;-84
2022/10/08 04:07:41;;;;;;;13.90;7.17;;;;;;;12.92;100.00;100040.91;12218393;19;20042;-85
2022/10/08 04:11:43;;;;;;;18.83;7.38;;;;;;;12.84;100.00;100052.44;12194104;19;20010;-86
2022/10/08 04:15:49;;;;;;;12.98;7.85;;;;;;;12.75;100.00;100052.88;12217784;19;20015;-86
2022/10/08 04:19:51;;;;;;;12.02;7.50;;;;;;;12.65;100.00;100052.75;12221822;19;20475;-86
2022/10/08 04:23:54;;;;;;;14.18;7.45;;;;;;;12.56;100.00;100051.53;12228627;19;20010;-81
2022/10/08 04:27:56;;;;;;;16.55;7.97;;;;;;;12.48;100.00;100061.09;12266963;19;20034;-83
2022/10/08 04:31:57;;;;;;;16.40;7.95;;;;;;;12.41;100.00;100066.00;12223711;19;20003;-84
2022/10/08 04:36:00;;;;;;;13.45;7.00;;;;;;;12.34;100.00;100057.03;12198083;19;20929;-84
2022/10/08 04:40:01;;;;;;;15.48;7.05;;;;;;;12.24;100.00;100070.72;12214150;19;20011;-84
2022/10/08 04:44:03;;;;;;;14.43;7.07;;;;;;;12.19;100.00;100070.66;12218266;19;20018;-85
2022/10/08 04:48:05;;;;;;;13.85;7.10;;;;;;;12.11;100.00;100074.69;12194544;19;20034;-85
2022/10/08 04:52:07;;;;;;;15.52;7.55;;;;;;;12.04;100.00;100072.09;12215761;19;20078;-85
2022/10/08 04:56:14;;;;;;;17.73;7.43;;;;;;;11.99;100.00;100072.03;12214865;19;20011;-85
2022/10/08 05:00:16;;;;;;;19.33;8.07;;;;;;;11.95;100.00;100075.53;12192282;19;20054;-84
2022/10/08 05:04:19;;;;;;;19.98;8.18;;;;;;;11.90;100.00;100078.22;12209855;19;20013;-85
2022/10/08 05:08:21;;;;;;;15.55;7.32;;;;;;;11.86;100.00;100078.72;12187321;19;20011;-86
2022/10/08 05:12:23;;;;;;;16.35;7.47;;;;;;;11.79;100.00;100086.31;12208437;19;20007;-84
2022/10/08 05:16:25;;;;;;;14.57;6.22;;;;;;;11.75;100.00;100082.41;12209456;19;20576;-85
2022/10/08 05:20:27;;;;;;;12.20;6.30;;;;;;;11.71;100.00;100095.00;12187105;19;20014;-85
2022/10/08 05:24:29;;;;;;;16.83;5.77;;;;;;;11.66;100.00;100094.94;12205578;19;20006;-86
2022/10/08 05:28:30;;;;;;;14.27;5.07;;;;;;;11.59;100.00;100092.31;12208888;19;20074;-86
2022/10/08 05:32:32;;;;;;;10.10;4.90;;;;;;;11.56;100.00;100089.22;12184077;19;20017;-85
2022/10/08 05:36:34;;;;;;;16.55;5.88;;;;;;;11.53;100.00;100092.50;12210723;19;20006;-85
2022/10/08 05:40:35;;;;;;;13.77;4.93;;;;;;;11.51;100.00;100105.69;12208196;19;20042;-85
2022/10/08 05:44:37;;;;;;;11.07;5.40;;;;;;;11.49;100.00;100100.44;12189792;19;20401;-83
2022/10/08 05:48:44;;;;;;;12.45;5.25;;;;;;;11.46;100.00;100105.63;12208819;19;20006;-85
2022/10/08 05:52:46;;;;;;;11.35;5.22;;;;;;;11.45;100.00;100104.78;12205423;19;20009;-87
2022/10/08 05:56:48;;;;;;;13.75;5.07;;;;;;;11.45;100.00;100113.06;12187508;19;20007;-85
2022/10/08 06:01:00;;;;;;;15.60;4.88;;;;;;;11.49;100.00;100105.13;12205195;19;20031;-86
2022/10/08 06:05:03;;;;;;;14.02;4.30;;;;;;;11.52;100.00;100121.19;12209110;19;20007;-85
2022/10/08 06:09:20;;;;;;;11.68;4.55;;;;;;;11.56;100.00;100120.41;12191887;19;20055;-85
2022/10/08 06:13:22;;;;;;;9.95;4.50;;;;;;;11.59;100.00;100132.88;12208811;19;20766;-84
2022/10/08 06:17:24;;;;;;;13.60;4.15;;;;;;;11.62;100.00;100132.41;12188017;19;20459;-83
2022/10/08 06:21:26;;;;;;;9.32;3.85;;;;;;;11.64;100.00;100135.75;12208244;19;20508;-82
2022/10/08 06:25:27;;;;;;;10.35;3.78;;;;;;;11.70;100.00;100139.44;12207974;19;20009;-88
2022/10/08 06:29:29;;;;;;;13.02;4.00;;;;;;;11.73;100.00;100138.94;12192080;19;20586;-80
2022/10/08 06:33:31;;;;;;;9.65;3.67;;;;;;;11.76;100.00;100144.78;12195956;19;20015;-84
2022/10/08 06:37:34;;;;;;;15.02;3.75;;;;;;;11.76;100.00;100150.31;12199750;19;20014;-84
2022/10/08 06:41:35;;;;;;;8.90;3.60;;;;;;;11.77;100.00;100151.97;12183334;19;20010;-80
2022/10/08 06:45:38;;;;;;;9.40;3.60;;;;;;;11.78;100.00;100150.91;12273438;19;20006;-82
2022/10/08 06:49:40;;;;;;;11.32;3.38;;;;;;;11.83;100.00;100150.97;12273166;19;20014;-82
2022/10/08 06:53:43;;;;;;;12.02;4.10;;;;;;;11.91;100.00;100157.22;12210275;19;20033;-85
2022/10/08 06:57:45;;;;;;;11.55;4.50;;;;;;;11.99;100.00;100156.81;12227829;19;20010;-83
2022/10/08 07:01:47;;;;;;;12.20;4.50;;;;;;;12.08;100.00;100169.94;12224166;19;20085;-85
2022/10/08 07:05:48;;;;;;;10.43;4.35;;;;;;;12.14;100.00;100168.13;12205122;19;20015;-85
2022/10/08 07:09:50;;;;;;;9.45;4.55;;;;;;;12.22;100.00;100164.91;12224665;19;20024;-81
2022/10/08 07:13:53;;;;;;;15.52;5.70;;;;;;;12.30;100.00;100172.78;12223219;19;20038;-86
2022/10/08 07:17:55;;;;;;;15.63;5.88;;;;;;;12.38;100.00;100177.06;12201847;19;20400;-85
2022/10/08 07:21:57;;;;;;;12.40;5.38;;;;;;;12.50;100.00;100176.97;12220869;19;20090;-85
2022/10/08 07:26:04;;;;;;;12.40;5.63;;;;;;;12.71;100.00;100189.16;12223659;19;20010;-86
2022/10/08 07:30:07;;;;;;;12.77;5.00;;;;;;;13.02;100.00;100193.16;12197569;19;20014;-86
2022/10/08 07:34:11;;;;;;;16.63;5.60;;;;;;;13.38;100.00;100194.47;12217955;19;20031;-86
2022/10/08 07:38:17;;;;;;;10.25;5.18;;;;;;;13.59;100.00;100190.00;12215649;19;20123;-84
2022/10/08 07:42:19;;;;;;;12.13;4.63;;;;;;;13.66;100.00;100201.72;12191376;19;20003;-86
2022/10/08 07:46:21;;;;;;;14.30;4.68;;;;;;;13.66;100.00;100204.47;12214772;19;20483;-85
2022/10/08 07:50:23;;;;;;;9.97;4.40;;;;;;;13.77;100.00;100207.34;12188052;19;20505;-84
2022/10/08 07:54:25;;;;;;;13.15;4.57;;;;;;;13.91;100.00;100212.19;12213983;19;20011;-82
2022/10/08 07:58:33;;;;;;;12.25;4.88;;;;;;;14.06;100.00;100214.28;12217521;19;20003;-84
2022/10/08 08:02:39;;;;;;;9.77;4.45;;;;;;;14.25;100.00;100213.91;12190115;19;20020;-84
2022/10/08 08:06:43;;;;;;;11.55;5.18;;;;;;;14.33;100.00;100221.72;12212307;19;20420;-84
2022/10/08 08:10:45;;;;;;;15.25;5.13;;;;;;;14.44;100.00;100219.88;12212082;19;20007;-84
2022/10/08 08:14:46;;;;;;;15.30;4.80;;;;;;;14.58;100.00;100221.94;12192173;19;20089;-82
2022/10/08 08:18:50;;;;;;;11.20;5.22;;;;;;;14.77;100.00;100232.63;12215992;19;20011;-85
2022/10/08 08:22:52;;;;;;;12.90;4.20;;;;;;;14.99;100.00;100246.34;12210851;19;20010;-85
2022/10/08 08:26:53;;;;;;;11.80;4.13;;;;;;;15.13;100.00;100241.97;12192746;19;20015;-84
2022/10/08 08:31:16;;;;;;;11.50;4.15;;;;;;;15.39;99.33;100242.94;12220279;19;20015;-85
2022/10/08 08:35:18;;;;;;;12.98;4.78;;;;;;;15.52;97.34;100251.88;12210759;19;20376;-85
2022/10/08 08:39:40;;;;;;;13.27;4.38;;;;;;;15.64;95.74;100253.28;12211291;19;20081;-84
2022/10/08 08:43:41;;;;;;;9.13;3.83;;;;;;;15.81;95.28;100252.28;12213456;19;20062;-84
2022/10/08 08:47:53;;;;;;;14.43;3.58;;;;;;;15.95;91.91;100242.31;12191368;19;20010;-85
2022/10/08 08:51:57;;;;;;;13.95;4.28;;;;;;;16.19;91.32;100253.75;12209142;19;20389;-85
2022/10/08 08:56:03;;;;;;;10.85;3.60;;;;;;;16.46;90.72;100261.00;12215943;19;20718;-84
2022/10/08 09:00:22;;;;;;;12.40;3.35;;;;;;;16.68;87.04;100258.75;12190045;19;20006;-84
2022/10/08 09:04:59;;;;;;;11.00;3.20;;;;;;;17.06;86.03;100262.91;12213842;19;20487;-84
2022/10/08 09:09:23;;;;;;;12.15;3.75;;;;;;;17.66;83.28;100260.19;12190990;19;20009;-85
2022/10/08 09:13:35;;;;;;;11.30;3.50;;;;;;;18.16;79.43;100261.03;12208064;19;20007;-83
2022/10/08 09:17:39;;;;;;;9.65;3.65;;;;;;;18.10;78.65;100259.41;12188737;19;20018;-83
2022/10/08 09:21:41;;;;;;;9.15;2.47;;;;;;;17.98;77.28;100270.91;12210117;19;20519;-84
2022/10/08 09:25:48;;;;;;;10.75;2.47;;;;;;;17.84;77.98;100277.41;12212086;19;20010;-84
2022/10/08 09:29:50;;;;;;;7.20;3.13;;;;;;;17.62;79.52;100284.16;12191087;19;20010;-83
2022/10/08 09:33:56;;;;;;;8.25;2.33;;;;;;;17.38;79.67;100283.16;12211549;19;20006;-84
2022/10/08 09:37:59;;;;;;;10.68;2.10;;;;;;;17.37;80.76;100273.13;12252522;19;20003;-81
2022/10/08 09:42:06;;;;;;;9.18;2.58;;;;;;;17.71;79.64;100288.03;12237731;19;20015;-85
2022/10/08 09:46:27;;;;;;;11.60;2.30;;;;;;;18.18;78.34;100283.06;12220398;19;20011;-86
2022/10/08 09:50:29;;;;;;;8.30;2.03;;;;;;;18.46;75.91;100278.66;12186905;19;20019;-83
2022/10/08 09:54:41;;;;;;;7.22;2.58;;;;;;;18.52;73.89;100282.25;12216197;19;20015;-84
2022/10/08 09:59:04;;;;;;;5.32;1.42;;;;;;;18.59;72.57;100289.19;12212858;19;20348;-84
2022/10/08 10:03:15;;;;;;;5.25;1.27;;;;;;;18.40;72.77;100304.94;12191616;19;20006;-80
2022/10/08 10:07:17;;;;;;;8.70;1.60;;;;;;;18.11;72.69;100314.06;12216010;19;20031;-84
2022/10/08 10:11:35;;;;;;;9.52;1.20;;;;;;;17.75;72.53;100313.38;12212433;19;20007;-84
2022/10/08 10:15:46;;;;;;;8.10;1.23;;;;;;;17.67;72.75;100330.72;12227298;19;20015;-83
2022/10/08 10:19:56;;;;;;;5.70;1.40;;;;;;;17.67;73.51;100323.19;12224184;19;20038;-84
2022/10/08 10:24:03;;;;;;;6.55;1.45;;;;;;;17.57;72.50;100317.63;12203413;19;20015;-85
2022/10/08 10:28:12;;;;;;;3.88;1.25;;;;;;;17.69;72.78;100314.50;12222027;19;20050;-85
2022/10/08 10:32:20;;;;;;;7.93;1.20;;;;;;;17.93;71.76;100317.50;12223527;19;20018;-84
2022/10/08 10:36:31;;;;;;;8.15;1.40;;;;;;;17.75;70.30;100314.19;12202531;19;20010;-81
2022/10/08 10:40:46;;;;;;;6.68;1.27;;;;;;;17.79;71.97;100322.03;12220230;19;20010;-87
2022/10/08 10:44:53;;;;;;;6.55;1.42;;;;;;;17.92;71.76;100330.63;12201000;19;20003;-85
2022/10/08 10:48:55;;;;;;;8.90;1.80;;;;;;;17.94;72.47;100338.72;12222530;19;20014;-85
2022/10/08 10:53:08;;;;;;;4.77;1.50;;;;;;;17.56;71.40;100341.03;12217182;19;20032;-86
2022/10/08 10:57:27;;;;;;;6.75;1.63;;;;;;;17.57;73.14;100342.69;12197958;19;20011;-84
2022/10/08 11:01:54;;;;;;;7.55;1.58;;;;;;;17.73;71.81;100335.13;12220264;19;20129;-86
2022/10/08 11:06:38;;;;;;;9.20;2.30;;;;;;;17.92;71.87;100350.13;12201599;19;20533;-82
2022/10/08 11:10:58;;;;;;;3.97;1.40;;;;;;;17.97;70.88;100349.28;12215830;19;20006;-84
2022/10/08 11:15:35;;;;;;;4.97;1.58;;;;;;;18.02;69.59;100346.44;12200667;19;20002;-85
2022/10/08 11:20:25;;;;;;;6.22;1.80;;;;;;;18.13;70.66;100334.13;12207455;19;20084;-84
2022/10/08 11:24:43;;;;;;;5.40;1.80;;;;;;;18.14;69.60;100335.78;12192186;19;20070;-85
2022/10/08 11:28:59;;;;;;;7.13;1.90;;;;;;;18.14;70.67;100330.22;12219267;19;20010;-84
2022/10/08 11:33:02;;;;;;;6.70;1.63;;;;;;;18.40;70.24;100332.84;12195308;19;20019;-84
2022/10/08 11:37:27;;;;;;;9.07;1.70;;;;;;;18.67;69.46;100335.16;12217773;19;20011;-86
2022/10/08 11:42:16;;;;;;;9.98;1.85;;;;;;;19.12;68.10;100342.34;12193028;19;20021;-84
2022/10/08 11:46:30;;;;;;;6.38;2.00;;;;;;;18.99;66.25;100342.19;12217004;19;20006;-84
2022/10/08 11:50:36;;;;;;;4.90;1.88;;;;;;;18.66;66.92;100351.09;12193367;19;20010;-84
2022/10/08 11:54:38;;;;;;;8.98;2.42;;;;;;;18.49;67.76;100341.44;12213819;19;20030;-83
2022/10/08 11:58:40;;;;;;;4.07;1.35;;;;;;;18.37;67.83;100342.63;12215822;19;20352;-85
2022/10/08 12:02:44;;;;;;;5.65;1.48;;;;;;;18.36;68.44;100345.72;12198621;19;20742;-85
2022/10/08 12:06:58;;;;;;;9.10;2.03;;;;;;;18.52;68.37;100338.91;12219294;19;20094;-84
2022/10/08 12:11:30;;;;;;;4.82;1.50;;;;;;;18.72;66.67;100335.13;12217760;19;20070;-85
2022/10/08 12:15:39;;;;;;;7.13;2.10;;;;;;;18.85;66.31;100331.69;12196308;19;20010;-85
2022/10/08 12:19:42;;;;;;;6.28;2.15;;;;;;;18.81;65.88;100339.00;12218809;19;20376;-86
2022/10/08 12:23:44;;;;;;;9.00;1.88;;;;;;;18.97;65.71;100338.84;12196392;19;20018;-84
2022/10/08 12:27:45;;;;;;;3.57;1.10;;;;;;;18.99;64.97;100342.19;12219513;19;20007;-84
2022/10/08 12:32:00;;;;;;;3.85;1.60;;;;;;;18.73;64.82;100341.53;12215274;19;20010;-83
2022/10/08 12:36:40;;;;;;;7.75;1.80;;;;;;;18.56;65.68;100337.22;12192845;19;20102;-84
2022/10/08 12:41:00;;;;;;;7.00;1.60;;;;;;;18.72;66.46;100325.94;12215940;19;20074;-85
2022/10/08 12:45:23;;;;;;;4.75;1.40;;;;;;;19.58;65.40;100327.06;12193145;19;20542;-85
2022/10/08 12:49:43;;;;;;;5.68;1.60;;;;;;;19.76;62.88;100331.06;12215062;19;20014;-85
2022/10/08 12:53:46;;;;;;;3.13;1.42;;;;;;;19.50;62.64;100328.53;12186360;19;20078;-85
2022/10/08 12:57:49;;;;;;;5.55;1.35;;;;;;;19.11;62.04;100321.13;12216303;19;20487;-83
2022/10/08 13:01:53;;;;;;;6.22;1.52;;;;;;;18.97;63.61;100331.31;12213964;19;19999;-83
2022/10/08 13:05:56;;;;;;;3.40;1.30;;;;;;;19.05;62.68;100325.09;12193055;19;20483;-84
2022/10/08 13:10:00;;;;;;;6.93;1.45;;;;;;;19.26;61.43;100324.91;12211072;19;20030;-85
2022/10/08 13:14:03;;;;;;;6.25;1.92;;;;;;;19.48;60.22;100328.03;12213179;19;20018;-85
2022/10/08 13:18:13;;;;;;;5.75;1.83;;;;;;;19.69;59.35;100327.78;12186410;19;20011;-85
2022/10/08 13:22:25;;;;;;;5.78;1.88;;;;;;;19.78;58.48;100328.78;12209302;19;20007;-86
2022/10/08 13:26:44;;;;;;;5.50;1.98;;;;;;;19.24;59.32;100325.19;12198729;19;20023;-83
2022/10/08 13:30:47;;;;;;;5.35;1.65;;;;;;;18.69;61.05;100335.72;12216244;19;20011;-84
2022/10/08 13:34:56;;;;;;;4.53;1.55;;;;;;;18.33;63.29;100340.72;12214225;19;20134;-83
2022/10/08 13:38:58;;;;;;;4.20;2.03;;;;;;;18.10;64.25;100331.09;12193606;19;20002;-85
2022/10/08 13:42:59;;;;;;;6.35;2.00;;;;;;;17.96;64.75;100339.22;12210952;19;20371;-84
2022/10/08 13:47:01;;;;;;;7.63;1.83;;;;;;;17.83;65.64;100345.44;12210738;19;20006;-84
2022/10/08 13:51:04;;;;;;;5.47;1.60;;;;;;;17.71;65.96;100346.56;12191096;19;20397;-84
2022/10/08 13:55:21;;;;;;;4.53;1.60;;;;;;;17.77;65.33;100336.22;12209086;19;20015;-85
2022/10/08 13:59:24;;;;;;;6.38;1.60;;;;;;;18.03;64.97;100342.56;12204056;19;20006;-82
2022/10/08 14:03:33;;;;;;;6.22;2.38;;;;;;;18.32;64.84;100336.25;12259658;19;20023;-80
2022/10/08 14:07:36;;;;;;;5.15;1.73;;;;;;;18.53;64.76;100335.00;12269092;19;20007;-80
2022/10/08 14:11:40;;;;;;;;;;;;;;;18.50;64.49;100329.16;12220981;19;20018;-85
2022/10/08 14:15:42;;;;;;;5.57;1.55;;;;;;;18.33;64.38;100329.56;12212846;19;19918;-84
2022/10/08 14:19:44;;;;;;;7.43;1.80;;;;;;;18.08;64.96;100338.91;12209470;19;20006;-82
2022/10/08 14:23:46;;;;;;;5.63;1.83;;;;;;;18.02;63.76;100331.69;12184112;19;20015;-84
2022/10/08 14:27:48;;;;;;;3.13;1.50;;;;;;;18.20;61.13;100326.28;12210294;19;20023;-84
2022/10/08 14:31:51;;;;;;;4.90;1.45;;;;;;;18.39;59.89;100331.19;12206917;19;20010;-82
2022/10/08 14:35:52;;;;;;;3.97;1.70;;;;;;;18.43;58.11;100327.53;12189095;19;20014;-84
2022/10/08 14:39:54;;;;;;;7.57;1.63;;;;;;;18.37;58.36;100337.06;12206216;19;20014;-84
2022/10/08 14:43:56;;;;;;;5.43;1.50;;;;;;;18.65;58.14;100332.69;12206212;19;20006;-84
2022/10/08 14:47:58;;;;;;;7.75;1.63;;;;;;;18.71;58.42;100336.25;12192973;19;20038;-84
2022/10/08 14:51:59;;;;;;;7.20;1.70;;;;;;;18.70;55.97;100334.59;12251125;19;20014;-80
2022/10/08 14:56:01;;;;;;;5.32;1.67;;;;;;;18.76;55.99;100341.81;12259883;19;20010;-80
2022/10/08 15:00:13;;;;;;;6.82;1.60;;;;;;;18.72;55.59;100337.09;12202923;19;20042;-83
2022/10/08 15:04:15;;;;;;;4.93;1.53;;;;;;;18.60;55.28;100335.50;12220358;19;20510;-84
2022/10/08 15:08:17;;;;;;;5.13;1.30;;;;;;;18.43;55.06;100337.84;12223423;19;20275;-84
2022/10/08 15:12:19;;;;;;;9.02;1.40;;;;;;;18.35;55.62;100335.66;12196824;19;20014;-84
2022/10/08 15:16:21;;;;;;;5.82;1.30;;;;;;;18.26;55.40;100337.41;12221670;19;20078;-84
2022/10/08 15:20:23;;;;;;;3.97;1.40;;;;;;;18.10;56.52;100329.13;12213122;19;20025;-85
2022/10/08 15:24:24;;;;;;;6.00;1.70;;;;;;;17.97;56.10;100330.59;12218517;19;20038;-85
2022/10/08 15:28:27;;;;;;;6.47;1.48;;;;;;;17.79;55.33;100335.97;12218303;19;20385;-85
2022/10/08 15:32:29;;;;;;;5.95;1.67;;;;;;;17.66;56.40;100335.41;12198049;19;20486;-84
2022/10/08 15:36:35;;;;;;;6.07;1.58;;;;;;;17.51;56.60;100333.53;12219669;19;20014;-85
2022/10/08 15:40:36;;;;;;;7.72;1.98;;;;;;;17.33;56.83;100334.13;12218768;19;20078;-84
2022/10/08 15:44:42;;;;;;;5.53;1.88;;;;;;;17.23;57.31;100334.16;12199690;19;20010;-85
2022/10/08 15:48:52;;;;;;;4.63;1.95;;;;;;;17.14;57.59;100338.63;12221442;19;20467;-85
2022/10/08 15:52:53;;;;;;;4.18;1.30;;;;;;;17.02;58.39;100341.72;12218107;19;20033;-85
2022/10/08 15:56:55;;;;;;;7.05;1.70;;;;;;;16.87;58.75;100352.88;12194149;19;20352;-86
2022/10/08 16:01:04;;;;;;;6.30;1.83;;;;;;;16.78;59.18;100352.59;12221540;19;20015;-86
2022/10/08 16:05:06;;;;;;;4.35;1.20;;;;;;;16.61;59.53;100363.94;12227451;19;20002;-86
2022/10/08 16:09:08;;;;;;;10.90;2.00;;;;;;;16.48;60.44;100370.03;12212187;19;20018;-85
2022/10/08 16:13:10;;;;;;;7.93;1.60;;;;;;;16.36;60.94;100368.34;12223952;19;20010;-85
2022/10/08 16:17:17;;;;;;;2.85;1.42;;;;;;;16.27;61.31;100366.34;12234799;19;20042;-86
2022/10/08 16:21:20;;;;;;;7.47;2.50;;;;;;;16.13;62.23;100368.84;12223074;19;20095;-85
2022/10/08 16:25:21;;;;;;;6.78;2.53;;;;;;;15.94;63.89;100371.25;12218322;19;20007;-84
2022/10/08 16:29:23;;;;;;;7.13;2.60;;;;;;;15.68;65.68;100376.72;12211952;19;20010;-85
2022/10/08 16:33:25;;;;;;;5.63;2.50;;;;;;;15.43;67.93;100384.84;12214414;19;20003;-86
2022/10/08 16:37:27;;;;;;;10.23;2.58;;;;;;;15.15;69.59;100383.28;12215717;19;20010;-86
2022/10/08 16:41:31;;;;;;;4.85;2.08;;;;;;;14.89;71.13;100396.94;12191228;19;20011;-84
2022/10/08 16:45:39;;;;;;;5.60;2.08;;;;;;;14.65;72.77;100401.16;12216334;19;20034;-85
2022/10/08 16:49:42;;;;;;;7.45;2.13;;;;;;;14.44;73.37;100412.03;12211283;19;20014;-85
2022/10/08 16:53:48;;;;;;;9.20;2.30;;;;;;;14.24;74.55;100422.88;12192510;19;20000;-83
2022/10/08 16:57:50;;;;;;;7.38;2.67;;;;;;;14.06;75.75;100427.66;12211166;19;20006;-85
2022/10/08 17:01:55;;;;;;;8.77;2.20;;;;;;;13.94;76.74;100431.66;12212915;19;20010;-85
2022/10/08 17:05:58;;;;;;;5.18;2.15;;;;;;;13.84;77.15;100435.13;12192943;19;20003;-85
2022/10/08 17:10:00;;;;;;;8.32;1.95;;;;;;;13.74;78.08;100432.19;12212678;19;20006;-83
2022/10/08 17:14:03;;;;;;;9.93;3.13;;;;;;;13.66;78.62;100444.56;12212777;19;20006;-86
2022/10/08 17:18:04;;;;;;;6.50;2.50;;;;;;;13.61;79.80;100450.88;12200689;19;20011;-86
2022/10/08 17:22:06;;;;;;;10.23;2.75;;;;;;;13.56;80.86;100461.84;12213624;19;20010;-86
2022/10/08 17:26:29;;;;;;;10.68;2.55;;;;;;;13.54;81.97;100457.69;12209989;19;20034;-84
2022/10/08 17:30:30;;;;;;;11.32;3.00;;;;;;;13.52;82.03;100469.00;12189256;19;20010;-85
2022/10/08 17:34:32;;;;;;;6.57;2.10;;;;;;;13.51;82.57;100481.19;12210057;19;20417;-86
2022/10/08 17:38:35;;;;;;;10.10;2.33;;;;;;;13.52;83.14;100488.38;12190402;19;20010;-87
2022/10/08 17:42:37;;;;;;;12.82;2.45;;;;;;;13.56;83.01;100489.53;12207497;19;20360;-83
2022/10/08 17:46:44;;;;;;;10.55;3.55;;;;;;;13.58;83.81;100500.38;12212605;19;20019;-86
2022/10/08 17:50:45;;;;;;;5.15;2.05;;;;;;;13.52;84.17;100496.69;12191188;19;20017;-86
2022/10/08 17:54:47;;;;;;;6.45;2.08;;;;;;;13.44;84.89;100508.19;12210398;19;20463;-85
2022/10/08 17:58:49;;;;;;;10.05;2.60;;;;;;;13.35;85.20;100512.47;12207531;19;20026;-87
2022/10/08 18:02:51;;;;;;;9.07;2.20;;;;;;;13.25;85.69;100515.91;12188237;19;20010;-86
2022/10/08 18:06:54;;;;;;;10.27;2.05;;;;;;;13.18;86.20;100527.09;12211272;19;20034;-86
2022/10/08 18:11:05;;;;;;;8.32;3.28;;;;;;;13.15;86.41;100535.06;12209472;19;20014;-87
2022/10/08 18:15:08;;;;;;;7.68;2.83;;;;;;;13.12;85.80;100535.56;12182493;19;20421;-86
2022/10/08 18:19:10;;;;;;;11.00;3.05;;;;;;;13.09;85.79;100542.44;12211052;19;20038;-86
2022/10/08 18:23:12;;;;;;;10.52;3.05;;;;;;;13.08;85.69;100551.81;12206071;19;20446;-88
2022/10/08 18:32:06;;;;;;;11.85;2.72;;;;;;;13.07;87.39;100569.50;12211061;19;20030;-87
2022/10/08 18:36:15;;;;;;;9.35;3.75;;;;;;;13.04;87.65;100567.25;12199619;19;20007;-87
2022/10/08 18:40:32;;;;;;;10.20;3.40;;;;;;;13.04;87.30;100570.00;12223866;19;20029;-85
2022/10/08 18:49:29;;;;;;;15.55;2.70;;;;;;;13.04;86.63;100586.59;12223272;19;20794;-85